Time;durP1;ratioP1;P1;durP2;ratioP2;P2;SDS_P1;SDS_P2;PMS_P1;PMS_P2;Temp;Humidity;BMP_temperature;BMP_pressure;BME280_temperature;BME280_humidity;BME280_pressure;Samples;Min_cycle;Max_cycle;Signal;HPM_P1;HPM_P2
2022/06/12 00:00:36;;;;;;;24.55;6.35;;;;;;;14.56;100.00;99537.47;4799384;29;20049;-80
2022/06/12 00:03:04;;;;;;;13.52;5.45;;;;;;;14.48;100.00;99545.63;4810536;29;20448;-80
2022/06/12 00:05:33;;;;;;;12.82;5.22;;;;;;;14.42;100.00;99542.78;4812540;29;20041;-80
2022/06/12 00:07:59;;;;;;;18.88;5.95;;;;;;;14.42;100.00;99542.78;4806940;29;20034;-81
2022/06/12 00:10:25;;;;;;;22.58;6.07;;;;;;;14.41;100.00;99545.63;4811098;29;20376;-80
2022/06/12 00:12:51;;;;;;;15.57;5.80;;;;;;;14.35;100.00;99552.56;4784407;29;20104;-80
2022/06/12 00:15:21;;;;;;;24.50;6.05;;;;;;;14.33;100.00;99556.44;4802417;29;20038;-80
2022/06/12 00:17:47;;;;;;;17.70;5.38;;;;;;;14.36;100.00;99554.19;4813492;29;20062;-79
2022/06/12 00:20:15;;;;;;;24.20;6.43;;;;;;;14.32;100.00;99558.25;4815854;29;20201;-80
2022/06/12 00:22:42;;;;;;;22.27;6.57;;;;;;;14.37;100.00;99555.81;4795609;29;20467;-81
2022/06/12 00:25:09;;;;;;;17.48;5.93;;;;;;;14.37;100.00;99555.81;4816729;29;20073;-81
2022/06/12 00:27:36;;;;;;;20.45;6.25;;;;;;;14.33;100.00;99553.78;4784193;29;20038;-78
2022/06/12 00:30:03;;;;;;;19.77;6.40;;;;;;;14.40;100.00;99552.75;4798063;29;20108;-80
2022/06/12 00:32:30;;;;;;;19.77;5.85;;;;;;;14.42;100.00;99547.25;4804241;29;20042;-81
2022/06/12 00:34:57;;;;;;;28.05;6.95;;;;;;;14.37;100.00;99544.44;4801281;29;20433;-80
2022/06/12 00:37:26;;;;;;;16.13;5.88;;;;;;;14.45;100.00;99535.47;4811439;29;20039;-81
2022/06/12 00:39:55;;;;;;;21.60;7.15;;;;;;;14.57;100.00;99547.81;4774315;29;20552;-81
2022/06/12 00:42:23;;;;;;;21.85;6.60;;;;;;;14.61;100.00;99555.31;4798938;29;20118;-80
2022/06/12 00:44:50;;;;;;;21.27;6.15;;;;;;;14.66;100.00;99535.19;4811186;29;20113;-79
2022/06/12 00:47:16;;;;;;;21.95;6.28;;;;;;;14.67;100.00;99536.81;4816751;29;20061;-80
2022/06/12 00:49:50;;;;;;;26.15;7.13;;;;;;;14.80;100.00;99543.91;4821151;29;20030;-79
2022/06/12 00:52:34;;;;;;;26.35;7.45;;;;;;;14.84;100.00;99546.94;4804599;29;20045;-81
2022/06/12 00:55:25;;;;;;;20.30;5.82;;;;;;;14.75;100.00;99530.50;4813367;29;21046;-81
2022/06/12 00:58:01;;;;;;;23.75;6.03;;;;;;;14.91;100.00;99550.34;4800153;29;20042;-80
2022/06/12 01:00:26;;;;;;;15.52;5.40;;;;;;;14.89;100.00;99541.03;4813213;29;20037;-80
2022/06/12 01:02:53;;;;;;;17.77;5.93;;;;;;;14.82;100.00;99539.22;4798522;29;20102;-81
2022/06/12 01:08:08;;;;;;;21.23;6.53;;;;;;;14.76;100.00;99545.34;4815841;29;20125;-80
2022/06/12 01:10:37;;;;;;;14.05;5.15;;;;;;;14.82;100.00;99539.22;4778808;29;20122;-79
2022/06/12 01:13:09;;;;;;;15.63;5.80;;;;;;;14.85;100.00;99535.34;4785646;29;20129;-80
2022/06/12 01:15:40;;;;;;;16.35;5.80;;;;;;;14.77;100.00;99531.13;4800746;29;20468;-80
2022/06/12 01:18:10;;;;;;;15.52;5.15;;;;;;;14.70;100.00;99549.59;4812885;29;20473;-79
2022/06/12 01:20:45;;;;;;;20.20;6.18;;;;;;;14.79;100.00;99541.47;4797887;29;20379;-80
2022/06/12 01:23:33;;;;;;;17.45;6.45;;;;;;;14.84;100.00;99544.31;4800620;29;20026;-81
2022/06/12 01:26:10;;;;;;;17.25;6.88;;;;;;;14.90;100.00;99538.16;4815443;29;20494;-82
2022/06/12 01:28:35;;;;;;;17.92;5.93;;;;;;;14.86;100.00;99531.69;4814078;29;20115;-82
2022/06/12 01:31:10;;;;;;;21.30;5.97;;;;;;;14.85;100.00;99532.72;4799071;29;20046;-81
2022/06/12 01:33:59;;;;;;;21.30;5.72;;;;;;;14.64;100.00;99524.03;4810352;29;20566;-82
2022/06/12 01:36:32;;;;;;;21.70;6.65;;;;;;;14.54;100.00;99528.91;4793069;29;20039;-81
2022/06/12 01:38:58;;;;;;;19.95;6.20;;;;;;;14.49;100.00;99524.28;4788835;29;20046;-83
2022/06/12 01:41:44;;;;;;;23.33;6.00;;;;;;;14.36;100.00;99517.22;4787791;30;20043;-83
2022/06/12 01:44:50;;;;;;;15.23;5.53;;;;;;;14.23;100.00;99527.81;4803393;29;20037;-83
2022/06/12 01:47:37;;;;;;;16.90;5.75;;;;;;;14.20;100.00;99528.22;4793855;29;20122;-83
2022/06/12 01:50:06;;;;;;;15.73;6.15;;;;;;;14.26;100.00;99537.94;4800686;29;20131;-82
2022/06/12 01:52:56;;;;;;;17.05;6.38;;;;;;;14.30;100.00;99530.44;4778846;29;20068;-83
2022/06/12 01:55:42;;;;;;;22.02;6.03;;;;;;;14.26;100.00;99527.38;4810931;29;20104;-81
2022/06/12 01:58:49;;;;;;;19.63;6.93;;;;;;;14.11;100.00;99527.63;4817474;29;20137;-81
2022/06/12 02:01:44;;;;;;;21.00;6.50;;;;;;;14.07;100.00;99529.84;4779687;29;20049;-82
2022/06/12 02:04:20;;;;;;;24.50;7.38;;;;;;;14.03;100.00;99536.56;4807327;29;20026;-82
2022/06/12 02:07:09;;;;;;;18.38;6.50;;;;;;;14.19;100.00;99534.53;4813720;29;20397;-82
2022/06/12 02:09:49;;;;;;;20.20;6.72;;;;;;;14.22;100.00;99526.97;4797352;29;20051;-81
2022/06/12 02:15:20;;;;;;;14.00;6.28;;;;;;;14.14;100.00;99520.09;4801244;29;20034;-83
2022/06/12 02:18:15;;;;;;;16.27;5.97;;;;;;;14.16;100.00;99525.19;4810915;29;20568;-81
2022/06/12 02:20:47;;;;;;;24.23;6.90;;;;;;;14.17;100.00;99526.78;4777745;30;20046;-83
2022/06/12 02:23:20;;;;;;;25.55;7.93;;;;;;;14.11;100.00;99520.50;4815080;29;20057;-82
2022/06/12 02:25:48;;;;;;;21.13;6.35;;;;;;;14.12;100.00;99531.88;4806992;29;20503;-83
2022/06/12 02:28:18;;;;;;;24.92;7.53;;;;;;;13.93;100.00;99525.59;4798295;29;20043;-81
2022/06/12 02:30:48;;;;;;;19.80;7.38;;;;;;;13.99;100.00;99524.81;4797027;29;20103;-83
2022/06/12 02:33:18;;;;;;;20.00;6.15;;;;;;;14.04;100.00;99518.88;4793294;29;20035;-84
2022/06/12 02:35:52;;;;;;;22.77;6.90;;;;;;;13.89;100.00;99516.47;4783391;30;20050;-83
2022/06/12 02:38:29;;;;;;;26.35;7.25;;;;;;;13.80;100.00;99524.63;4793458;29;20033;-81
2022/06/12 02:41:03;;;;;;;21.35;7.60;;;;;;;13.87;100.00;99526.44;4793611;29;20046;-81
2022/06/12 02:43:32;;;;;;;27.65;7.05;;;;;;;13.67;100.00;99522.78;4782839;29;20041;-82
2022/06/12 02:46:02;;;;;;;19.73;6.75;;;;;;;13.72;100.00;99516.88;4795932;29;20508;-82
2022/06/12 02:48:30;;;;;;;25.48;7.47;;;;;;;13.64;100.00;99519.75;4820042;29;20478;-82
2022/06/12 02:51:11;;;;;;;20.25;6.63;;;;;;;13.80;100.00;99527.25;4787821;29;20035;-82
2022/06/12 02:53:50;;;;;;;28.45;7.10;;;;;;;13.59;100.00;99524.81;4793180;29;20038;-81
2022/06/12 02:56:37;;;;;;;26.85;7.30;;;;;;;13.59;100.00;99522.19;4811700;29;20047;-82
2022/06/12 02:59:15;;;;;;;22.17;6.93;;;;;;;13.42;100.00;99535.72;4810794;29;20030;-83
2022/06/12 03:02:14;;;;;;;23.83;7.35;;;;;;;13.35;100.00;99527.78;4800575;29;20542;-82
2022/06/12 03:04:53;;;;;;;21.95;6.85;;;;;;;13.42;100.00;99523.34;4804153;29;20088;-81
2022/06/12 03:07:19;;;;;;;26.33;7.70;;;;;;;13.54;100.00;99539.41;4792824;29;20038;-81
2022/06/12 03:09:45;;;;;;;20.45;7.03;;;;;;;13.48;100.00;99527.03;4780444;29;20121;-81
2022/06/12 03:12:12;;;;;;;21.38;6.70;;;;;;;13.46;100.00;99528.22;4800783;29;20118;-81
2022/06/12 03:14:38;;;;;;;20.98;6.93;;;;;;;13.33;100.00;99521.09;4799200;29;20474;-81
2022/06/12 03:17:04;;;;;;;23.67;7.47;;;;;;;13.38;100.00;99527.38;4798412;29;20188;-81
2022/06/12 03:19:46;;;;;;;23.05;7.07;;;;;;;13.43;100.00;99530.25;4823164;29;20030;-80
2022/06/12 03:22:23;;;;;;;25.77;6.68;;;;;;;13.43;100.00;99530.25;4792452;29;20068;-81
2022/06/12 03:25:01;;;;;;;23.88;8.43;;;;;;;13.18;100.00;99519.47;4804733;29;20038;-81
2022/06/12 03:27:27;;;;;;;14.73;6.43;;;;;;;13.41;100.00;99521.72;4806408;29;20121;-81
2022/06/12 03:29:59;;;;;;;20.85;7.45;;;;;;;13.27;100.00;99520.88;4790316;29;20195;-81
2022/06/12 03:32:48;;;;;;;20.17;7.03;;;;;;;13.24;100.00;99516.00;4806716;29;20117;-82
2022/06/12 03:35:32;;;;;;;17.52;6.40;;;;;;;13.09;100.00;99521.47;4798914;29;20047;-81
2022/06/12 03:37:57;;;;;;;;;;;;;;;13.24;100.00;99521.28;4804245;29;20035;-82
2022/06/12 03:40:41;;;;;;;22.13;6.78;;;;;;;13.29;100.00;99518.84;4820646;29;19924;-80
2022/06/12 03:43:09;;;;;;;;;;;;;;;13.11;100.00;99511.53;4804328;29;20092;-82
2022/06/12 03:45:47;;;;;;;28.88;7.97;;;;;;;13.07;100.00;99520.03;4806357;29;20036;-81
2022/06/12 03:48:51;;;;;;;28.05;7.25;;;;;;;13.20;100.00;99520.06;4824588;29;20125;-80
2022/06/12 03:51:43;;;;;;;19.13;6.40;;;;;;;13.40;100.00;99519.28;4805316;29;20096;-82
2022/06/12 03:54:33;;;;;;;17.58;6.15;;;;;;;13.45;100.00;99523.97;4809549;29;20073;-82
2022/06/12 04:00:00;;;;;;;20.20;6.90;;;;;;;13.61;100.00;99525.44;4809961;29;20049;-81
2022/06/12 04:02:29;;;;;;;21.95;6.95;;;;;;;13.69;100.00;99512.03;4825975;29;20496;-81
2022/06/12 04:04:56;;;;;;;20.17;7.05;;;;;;;13.89;100.00;99524.38;4826274;29;20030;-82
2022/06/12 04:07:27;;;;;;;24.95;6.90;;;;;;;13.77;100.00;99530.31;4791635;29;20084;-82
2022/06/12 04:09:57;;;;;;;17.40;6.05;;;;;;;13.92;100.00;99534.53;4793283;29;20043;-82
2022/06/12 04:12:28;;;;;;;26.80;8.15;;;;;;;13.83;100.00;99531.28;4791125;29;20042;-83
2022/06/12 04:15:15;;;;;;;24.15;6.75;;;;;;;14.06;100.00;99528.22;4824178;29;20030;-81
2022/06/12 04:17:42;;;;;;;26.73;7.03;;;;;;;14.11;100.00;99522.34;4804748;29;20053;-81
2022/06/12 04:20:54;;;;;;;20.25;7.35;;;;;;;13.89;100.00;99513.84;4808442;29;20073;-81
2022/06/12 04:24:09;;;;;;;20.83;7.15;;;;;;;13.95;100.00;99536.75;4787967;29;20586;-80
2022/06/12 04:26:34;;;;;;;;;;;;;;;13.87;100.00;99532.53;4787274;30;20077;-81
2022/06/12 04:29:22;;;;;;;24.67;7.32;;;;;;;14.00;100.00;99539.63;4772640;30;19963;-81
2022/06/12 04:31:50;;;;;;;26.55;7.15;;;;;;;13.83;100.00;99523.38;4795504;29;20053;-81
2022/06/12 04:34:16;;;;;;;25.33;7.63;;;;;;;14.02;100.00;99531.47;4797015;29;20402;-82
2022/06/12 04:36:44;;;;;;;19.50;7.30;;;;;;;14.26;100.00;99532.66;4808692;29;20041;-81
2022/06/12 04:39:12;;;;;;;21.55;8.35;;;;;;;14.26;100.00;99541.41;4808894;29;20024;-81
2022/06/12 04:41:38;;;;;;;21.50;7.22;;;;;;;14.13;100.00;99529.03;4825509;29;20041;-81
2022/06/12 04:44:05;;;;;;;17.88;6.90;;;;;;;14.17;100.00;99528.63;4825496;29;20037;-81
2022/06/12 04:46:35;;;;;;;16.73;6.63;;;;;;;14.17;100.00;99533.91;4825439;29;20497;-82
2022/06/12 04:49:01;;;;;;;20.70;7.95;;;;;;;14.35;100.00;99535.91;4808506;29;20416;-82
2022/06/12 04:51:29;;;;;;;26.38;8.40;;;;;;;14.11;100.00;99520.50;4825671;29;20038;-82
2022/06/12 04:53:55;;;;;;;20.23;6.90;;;;;;;14.61;100.00;99535.00;4806732;29;20031;-82
2022/06/12 04:56:23;;;;;;;24.45;9.13;;;;;;;14.59;100.00;99541.50;4805623;29;20035;-82
2022/06/12 04:58:51;;;;;;;24.75;8.57;;;;;;;14.57;100.00;99534.63;4806165;29;20042;-82
2022/06/12 05:01:19;;;;;;;25.50;8.70;;;;;;;14.16;100.00;99527.00;4806789;29;20042;-81
2022/06/12 05:03:44;;;;;;;27.05;8.77;;;;;;;14.52;100.00;99525.69;4825197;29;20447;-80
2022/06/12 05:06:14;;;;;;;25.27;9.07;;;;;;;14.49;100.00;99531.38;4806387;29;20058;-81
2022/06/12 05:08:39;;;;;;;27.13;8.77;;;;;;;14.90;100.00;99527.59;4825356;29;20398;-83
2022/06/12 05:11:05;;;;;;;17.13;8.15;;;;;;;15.06;100.00;99542.19;4825063;29;20062;-81
2022/06/12 05:13:31;;;;;;;18.00;8.65;;;;;;;14.60;100.00;99536.03;4825206;29;20112;-81
2022/06/12 05:15:57;;;;;;;22.75;7.78;;;;;;;14.91;100.00;99545.06;4793538;29;20049;-81
2022/06/12 05:18:22;;;;;;;21.50;8.60;;;;;;;15.13;100.00;99542.94;4808210;29;20516;-81
2022/06/12 05:20:49;;;;;;;23.45;8.68;;;;;;;14.73;100.00;99531.72;4825143;29;20034;-81
2022/06/12 05:23:15;;;;;;;19.95;7.65;;;;;;;14.47;100.00;99541.34;4808207;29;20107;-81
2022/06/12 05:25:42;;;;;;;17.65;6.85;;;;;;;14.68;100.00;99542.91;4823724;29;20046;-81
2022/06/12 05:28:10;;;;;;;22.20;7.10;;;;;;;14.88;100.00;99539.41;4824705;29;20443;-82
2022/06/12 05:30:36;;;;;;;28.85;7.03;;;;;;;14.41;100.00;99541.16;4808000;29;20064;-82
2022/06/12 05:33:02;;;;;;;21.67;7.22;;;;;;;14.50;100.00;99530.38;4808430;29;20065;-82
2022/06/12 05:35:30;;;;;;;18.30;7.22;;;;;;;14.46;100.00;99534.44;4807376;29;20039;-83
2022/06/12 05:37:56;;;;;;;19.98;7.00;;;;;;;14.88;100.00;99531.50;4807013;29;20123;-81
2022/06/12 05:40:27;;;;;;;18.40;6.43;;;;;;;14.95;100.00;99517.22;4824393;29;20042;-81
2022/06/12 05:42:53;;;;;;;21.13;7.15;;;;;;;14.80;100.00;99537.81;4792514;29;20099;-81
2022/06/12 05:45:22;;;;;;;21.10;8.25;;;;;;;14.47;100.00;99536.91;4824030;29;20034;-80
2022/06/12 05:48:02;;;;;;;17.00;7.40;;;;;;;15.06;100.00;99536.06;4806705;29;20129;-81
2022/06/12 05:50:30;;;;;;;18.45;7.88;;;;;;;15.00;100.00;99543.00;4822049;29;20041;-80
2022/06/12 05:52:57;;;;;;;20.33;7.50;;;;;;;15.20;100.00;99542.09;4822763;29;20085;-81
2022/06/12 05:55:23;;;;;;;27.27;7.40;;;;;;;14.98;100.00;99527.38;4806785;29;20031;-81
2022/06/12 05:57:49;;;;;;;18.58;6.30;;;;;;;15.10;100.00;99534.63;4824201;29;20117;-81
2022/06/12 06:00:25;;;;;;;27.17;7.18;;;;;;;14.80;100.00;99535.97;4805634;29;20426;-84
2022/06/12 06:02:51;;;;;;;21.10;6.53;;;;;;;15.08;100.00;99536.66;4790641;29;20038;-81
2022/06/12 06:05:16;;;;;;;26.48;7.68;;;;;;;14.24;100.00;99529.44;4824078;29;20094;-82
2022/06/12 06:07:42;;;;;;;24.27;6.97;;;;;;;14.60;100.00;99530.75;4822515;29;20038;-81
2022/06/12 06:10:13;;;;;;;27.02;7.65;;;;;;;14.33;100.00;99545.88;4824249;29;20090;-81
2022/06/12 06:12:39;;;;;;;21.17;7.43;;;;;;;14.34;100.00;99536.91;4824116;29;20026;-83
2022/06/12 06:15:07;;;;;;;26.42;7.20;;;;;;;14.57;100.00;99528.53;4806124;29;20501;-81
2022/06/12 06:17:33;;;;;;;25.38;6.70;;;;;;;14.18;100.00;99536.34;4823977;29;20058;-81
2022/06/12 06:20:00;;;;;;;20.13;6.13;;;;;;;14.68;100.00;99549.00;4824539;29;20038;-84
2022/06/12 06:22:25;;;;;;;26.08;7.63;;;;;;;15.26;100.00;99535.97;4824172;29;20034;-84
2022/06/12 06:24:52;;;;;;;31.10;7.13;;;;;;;14.98;100.00;99537.94;4808108;29;20098;-82
2022/06/12 06:27:19;;;;;;;23.92;6.55;;;;;;;15.01;100.00;99560.47;4822813;29;20045;-82
2022/06/12 06:29:45;;;;;;;23.70;7.10;;;;;;;14.99;100.00;99544.84;4804909;29;20042;-86
2022/06/12 06:32:11;;;;;;;24.08;7.45;;;;;;;15.10;100.00;99551.31;4821755;29;20030;-86
2022/06/12 06:34:39;;;;;;;29.52;7.05;;;;;;;14.87;100.00;99554.44;4806410;29;20038;-85
2022/06/12 06:37:16;;;;;;;29.25;7.25;;;;;;;15.44;100.00;99553.75;4804955;29;20425;-83
2022/06/12 06:39:42;;;;;;;27.38;7.57;;;;;;;15.11;100.00;99549.44;4806824;29;20034;-85
2022/06/12 06:42:10;;;;;;;23.80;6.85;;;;;;;15.28;100.00;99555.06;4822404;29;20066;-83
2022/06/12 06:47:41;;;;;;;23.75;6.45;;;;;;;15.25;100.00;99560.78;4731884;30;20048;-83
2022/06/12 06:50:09;;;;;;;18.67;6.55;;;;;;;15.43;100.00;99573.28;4746676;30;20480;-86
2022/06/12 06:52:35;;;;;;;24.98;7.03;;;;;;;15.61;100.00;99569.09;4780788;29;20046;-86
2022/06/12 06:55:01;;;;;;;40.72;7.28;;;;;;;15.80;100.00;99570.78;4804504;29;20039;-86
2022/06/12 06:57:27;;;;;;;18.33;6.20;;;;;;;15.02;100.00;99567.38;4806138;29;20035;-88
2022/06/12 06:59:53;;;;;;;25.08;7.93;;;;;;;14.87;100.00;99580.88;4811962;29;20117;-86
2022/06/12 07:02:19;;;;;;;23.48;6.60;;;;;;;14.70;100.00;99578.66;4827676;29;20038;-85
2022/06/12 07:04:45;;;;;;;25.13;6.75;;;;;;;14.60;100.00;99591.53;4824427;29;20038;-85
2022/06/12 07:07:11;;;;;;;21.90;7.10;;;;;;;14.72;100.00;99591.72;4823900;29;20045;-84
2022/06/12 07:09:39;;;;;;;25.58;7.05;;;;;;;14.57;100.00;99608.56;4805964;29;20031;-83
2022/06/12 07:12:06;;;;;;;21.58;7.53;;;;;;;15.17;100.00;99601.50;4791910;29;20070;-82
2022/06/12 07:14:32;;;;;;;24.50;7.20;;;;;;;15.25;100.00;99614.47;4805191;29;20045;-84
2022/06/12 07:16:59;;;;;;;24.33;5.97;;;;;;;15.92;100.00;99589.47;4792512;29;20046;-83
2022/06/12 07:19:25;;;;;;;33.80;7.07;;;;;;;16.17;100.00;99604.53;4824709;29;20117;-83
2022/06/12 07:21:51;;;;;;;17.70;5.95;;;;;;;16.02;100.00;99594.25;4826825;29;20041;-84
2022/06/12 07:24:18;;;;;;;25.67;6.57;;;;;;;15.81;100.00;99622.69;4809975;29;20069;-82
2022/06/12 07:26:46;;;;;;;22.65;6.82;;;;;;;16.03;100.00;99609.13;4825782;29;20046;-81
2022/06/12 07:29:13;;;;;;;21.45;6.55;;;;;;;16.13;100.00;99609.47;4826205;29;20485;-82
2022/06/12 07:31:40;;;;;;;23.83;6.72;;;;;;;15.51;100.00;99620.63;4826067;29;20387;-82
2022/06/12 07:34:06;;;;;;;26.88;6.38;;;;;;;15.56;100.00;99620.00;4808397;29;20042;-82
2022/06/12 07:36:35;;;;;;;18.13;6.25;;;;;;;15.49;100.00;99613.97;4808927;29;20031;-81
2022/06/12 07:39:00;;;;;;;27.15;7.45;;;;;;;15.23;100.00;99648.25;4807304;29;20030;-81
2022/06/12 07:41:28;;;;;;;18.67;6.45;;;;;;;15.09;100.00;99622.88;4793619;29;20189;-81
2022/06/12 07:43:53;;;;;;;22.50;6.80;;;;;;;15.77;100.00;99621.50;4809727;29;20130;-81
2022/06/12 07:46:20;;;;;;;24.55;6.13;;;;;;;15.45;100.00;99628.63;4808320;29;20041;-84
2022/06/12 07:48:47;;;;;;;22.75;6.07;;;;;;;15.24;100.00;99622.63;4806848;29;20375;-84
2022/06/12 07:51:17;;;;;;;21.30;6.43;;;;;;;15.71;100.00;99635.59;4792593;29;20043;-84
2022/06/12 07:53:48;;;;;;;21.52;6.22;;;;;;;15.74;100.00;99637.81;4807578;29;20516;-83
2022/06/12 07:56:16;;;;;;;26.77;6.97;;;;;;;15.73;100.00;99648.63;4824264;29;20053;-85
2022/06/12 07:58:43;;;;;;;21.77;6.13;;;;;;;16.07;100.00;99633.34;4807115;29;20031;-86
2022/06/12 08:01:11;;;;;;;22.02;6.10;;;;;;;16.40;100.00;99641.00;4805299;29;20039;-83
2022/06/12 08:03:36;;;;;;;20.83;6.47;;;;;;;16.04;100.00;99642.50;4811839;29;20038;-83
2022/06/12 08:06:03;;;;;;;19.83;6.32;;;;;;;15.42;100.00;99641.25;4794249;29;20039;-82
2022/06/12 08:08:28;;;;;;;19.08;5.30;;;;;;;15.62;100.00;99650.09;4821770;29;20030;-82
2022/06/12 08:10:54;;;;;;;17.13;5.43;;;;;;;15.65;100.00;99647.03;4806067;29;20375;-82
2022/06/12 08:13:20;;;;;;;18.65;5.70;;;;;;;16.21;100.00;99636.69;4825039;29;20039;-86
2022/06/12 08:15:49;;;;;;;18.67;5.05;;;;;;;15.91;100.00;99645.25;4823768;29;20046;-82
2022/06/12 08:18:15;;;;;;;18.23;5.85;;;;;;;16.05;100.00;99654.72;4823048;29;20099;-83
2022/06/12 08:20:45;;;;;;;17.63;4.85;;;;;;;16.59;99.67;99650.81;4808799;29;20563;-83
2022/06/12 08:23:27;;;;;;;21.85;5.40;;;;;;;16.34;99.26;99647.19;4808790;29;20093;-83
2022/06/12 08:25:53;;;;;;;18.42;5.40;;;;;;;17.09;96.80;99652.53;4809446;29;20034;-86
2022/06/12 08:28:20;;;;;;;19.33;6.15;;;;;;;16.77;95.70;99666.72;4795296;29;20039;-86
2022/06/12 08:30:46;;;;;;;21.52;6.05;;;;;;;16.94;96.15;99651.06;4806612;29;20118;-82
2022/06/12 08:33:11;;;;;;;22.35;5.97;;;;;;;16.27;96.92;99657.00;4826740;29;20061;-82
2022/06/12 08:35:38;;;;;;;22.88;5.38;;;;;;;15.89;98.64;99660.53;4808878;29;20038;-83
2022/06/12 08:38:04;;;;;;;13.65;5.03;;;;;;;16.22;99.45;99649.72;4809633;29;20040;-81
2022/06/12 08:40:38;;;;;;;16.20;5.50;;;;;;;16.37;96.12;99661.81;4825553;29;20461;-81
2022/06/12 08:43:11;;;;;;;;;;;;;;;16.81;94.67;99657.31;4824304;29;20064;-81
2022/06/12 08:45:45;;;;;;;14.95;4.93;;;;;;;16.75;94.88;99657.41;4822701;29;19948;-81
2022/06/12 08:48:27;;;;;;;16.42;5.07;;;;;;;16.73;94.92;99660.25;4823708;29;20468;-83
2022/06/12 08:51:16;;;;;;;15.52;4.85;;;;;;;17.05;91.55;99667.28;4825413;29;20054;-83
2022/06/12 08:53:54;;;;;;;20.48;4.60;;;;;;;16.26;87.80;99681.88;4820437;29;20034;-88
2022/06/12 08:56:26;;;;;;;14.20;5.00;;;;;;;15.94;87.82;99666.03;4825820;29;20038;-84
2022/06/12 08:59:02;;;;;;;18.02;4.35;;;;;;;15.83;87.96;99667.50;4806570;29;20027;-86
2022/06/12 09:01:29;;;;;;;15.90;4.93;;;;;;;16.09;87.73;99682.41;4824423;29;20062;-80
2022/06/12 09:03:58;;;;;;;16.75;5.20;;;;;;;16.31;88.22;99660.84;4794585;29;20124;-82
2022/06/12 09:06:37;;;;;;;20.27;5.30;;;;;;;15.84;90.01;99675.22;4807053;29;20566;-83
2022/06/12 09:09:28;;;;;;;18.80;5.50;;;;;;;15.94;91.70;99689.84;4818908;29;20437;-83
2022/06/12 09:12:09;;;;;;;17.90;5.35;;;;;;;15.56;91.28;99673.75;4824905;29;20051;-80
2022/06/12 09:15:01;;;;;;;14.05;4.70;;;;;;;16.32;90.85;99659.00;4809322;29;20113;-80
2022/06/12 09:18:09;;;;;;;18.03;5.10;;;;;;;15.85;88.77;99660.94;4801470;29;20131;-79
2022/06/12 09:20:47;;;;;;;21.05;5.35;;;;;;;16.49;88.02;99649.47;4783871;29;20134;-82
2022/06/12 09:23:38;;;;;;;11.90;4.32;;;;;;;15.96;86.26;99654.19;4805619;29;20035;-80
2022/06/12 09:26:30;;;;;;;11.50;4.47;;;;;;;15.83;86.63;99664.84;4805967;29;20087;-81
2022/06/12 09:29:15;;;;;;;14.20;4.60;;;;;;;15.84;86.41;99669.91;4788952;29;20038;-81
2022/06/12 09:32:00;;;;;;;16.95;4.95;;;;;;;16.06;87.17;99672.25;4789111;29;20491;-81
2022/06/12 09:34:44;;;;;;;19.60;5.15;;;;;;;16.12;88.51;99666.09;4805694;29;20126;-80
2022/06/12 09:40:35;;;;;;;18.00;5.32;;;;;;;16.43;89.45;99671.56;4805516;29;20436;-83
2022/06/12 09:43:33;;;;;;;12.95;5.00;;;;;;;16.39;89.71;99671.16;4774137;29;20107;-81
2022/06/12 09:46:01;;;;;;;13.02;5.20;;;;;;;16.63;88.77;99666.06;4797940;29;20529;-81
2022/06/12 09:48:36;;;;;;;24.13;5.70;;;;;;;17.16;84.08;99649.81;4805221;29;20035;-80
2022/06/12 09:51:14;;;;;;;19.50;5.00;;;;;;;17.46;83.76;99649.03;4804772;29;20061;-81
2022/06/12 09:53:51;;;;;;;11.10;4.18;;;;;;;17.81;82.96;99658.97;4804761;29;20382;-81
2022/06/12 09:56:33;;;;;;;15.52;5.20;;;;;;;17.89;81.66;99650.66;4788759;29;20389;-81
2022/06/12 09:59:16;;;;;;;11.75;5.05;;;;;;;17.98;80.53;99659.09;4802725;29;20031;-81
2022/06/12 10:01:47;;;;;;;16.98;4.75;;;;;;;17.79;79.04;99661.84;4804540;29;20030;-81
2022/06/12 10:04:24;;;;;;;15.27;4.40;;;;;;;17.42;80.54;99656.63;4803646;29;20058;-81
2022/06/12 10:07:05;;;;;;;13.45;5.63;;;;;;;17.44;79.92;99664.38;4804602;29;20043;-81
2022/06/12 10:09:37;;;;;;;13.82;5.03;;;;;;;17.08;81.45;99672.13;4803839;29;20038;-80
2022/06/12 10:12:08;;;;;;;16.25;4.32;;;;;;;17.34;80.74;99676.31;4803769;29;20027;-81
2022/06/12 10:14:44;;;;;;;14.25;4.43;;;;;;;17.04;79.36;99681.56;4804375;29;20026;-81
2022/06/12 10:17:17;;;;;;;10.15;4.35;;;;;;;17.26;79.03;99668.69;4805520;29;20130;-81
2022/06/12 10:19:57;;;;;;;20.92;4.93;;;;;;;17.46;78.94;99675.56;4814323;29;20046;-81
2022/06/12 10:22:34;;;;;;;13.07;4.25;;;;;;;18.21;79.35;99674.31;4797426;29;20043;-80
2022/06/12 10:25:01;;;;;;;19.40;5.60;;;;;;;17.80;77.34;99674.06;4790938;29;20050;-80
2022/06/12 10:27:40;;;;;;;16.95;4.57;;;;;;;18.56;77.50;99662.88;4798078;29;20045;-81
2022/06/12 10:30:07;;;;;;;14.23;4.72;;;;;;;18.43;76.49;99676.41;4791115;29;20111;-80
2022/06/12 10:32:52;;;;;;;13.50;4.57;;;;;;;18.60;76.41;99681.03;4796075;29;20061;-81
2022/06/12 10:35:21;;;;;;;21.33;5.28;;;;;;;18.44;77.14;99661.25;4792078;29;20117;-81
2022/06/12 10:37:48;;;;;;;17.70;5.28;;;;;;;18.48;78.34;99675.72;4781538;29;20143;-81
2022/06/12 10:40:21;;;;;;;13.45;4.82;;;;;;;18.02;75.34;99680.75;4812235;29;20038;-80
2022/06/12 10:42:54;;;;;;;7.25;3.80;;;;;;;17.79;73.89;99661.84;4814181;29;20402;-81
2022/06/12 10:45:20;;;;;;;;;;;;;;;18.81;73.41;99663.66;4811883;29;21648;-80
2022/06/12 10:47:47;;;;;;;13.10;4.60;;;;;;;19.09;73.28;99662.16;4814867;29;19928;-81
2022/06/12 10:50:30;;;;;;;11.85;4.30;;;;;;;19.13;72.90;99665.94;4812053;29;20034;-81
2022/06/12 10:53:07;;;;;;;8.82;4.53;;;;;;;18.82;72.49;99662.63;4792085;29;20456;-81
2022/06/12 10:56:01;;;;;;;16.17;4.38;;;;;;;18.61;72.97;99666.69;4800785;29;20058;-81
2022/06/12 10:58:46;;;;;;;;;;;;;;;18.70;71.39;99663.47;4819977;29;20038;-81
2022/06/12 11:01:16;;;;;;;;;;;;;;;17.72;70.44;99644.38;4821024;29;19917;-81
2022/06/12 11:03:58;;;;;;;8.88;3.70;;;;;;;17.14;72.24;99660.66;4788776;29;19917;-80
2022/06/12 11:06:49;;;;;;;12.05;4.13;;;;;;;17.34;72.86;99655.09;4802023;29;20038;-83
2022/06/12 11:09:25;;;;;;;10.77;3.67;;;;;;;17.78;73.01;99659.41;4823002;29;20050;-82
2022/06/12 11:12:10;;;;;;;20.60;5.82;;;;;;;17.97;73.66;99641.56;4820731;29;20038;-82
2022/06/12 11:14:45;;;;;;;11.23;4.45;;;;;;;17.98;73.96;99661.78;4817200;29;20053;-83
2022/06/12 11:17:36;;;;;;;10.32;4.32;;;;;;;18.52;72.24;99652.94;4816933;29;20058;-82
2022/06/12 11:20:40;;;;;;;6.78;3.67;;;;;;;18.67;69.01;99655.94;4817110;29;20158;-82
2022/06/12 11:23:43;;;;;;;9.23;4.35;;;;;;;18.78;69.44;99648.19;4787841;29;20044;-82
2022/06/12 11:26:22;;;;;;;8.90;4.15;;;;;;;19.20;68.61;99677.25;4801978;29;20042;-84
2022/06/12 11:29:00;;;;;;;7.07;3.75;;;;;;;19.41;66.96;99637.72;4816198;29;20035;-84
2022/06/12 11:31:52;;;;;;;10.20;4.22;;;;;;;19.98;65.68;99644.06;4790598;29;20055;-85
2022/06/12 11:34:50;;;;;;;11.90;4.30;;;;;;;20.25;66.00;99654.88;4815568;29;20142;-83
2022/06/12 11:37:25;;;;;;;13.77;4.32;;;;;;;20.11;65.00;99635.75;4795742;29;20057;-81
2022/06/12 11:40:29;;;;;;;12.13;4.05;;;;;;;19.82;65.17;99641.09;4812196;29;20031;-83
2022/06/12 11:43:23;;;;;;;12.97;4.63;;;;;;;18.98;64.90;99663.75;4817484;29;20449;-82
2022/06/12 11:46:34;;;;;;;6.45;3.55;;;;;;;19.27;64.90;99638.03;4820052;29;20128;-80
2022/06/12 11:49:19;;;;;;;12.13;3.90;;;;;;;20.29;64.40;99636.53;4819831;29;20145;-79
2022/06/12 11:52:16;;;;;;;8.85;4.18;;;;;;;20.24;63.99;99644.44;4802107;29;20092;-80
2022/06/12 11:55:00;;;;;;;6.28;4.00;;;;;;;20.27;63.27;99630.66;4787076;29;20057;-80
2022/06/12 11:57:29;;;;;;;8.88;3.65;;;;;;;19.67;63.18;99633.66;4790531;29;20070;-80
2022/06/12 12:00:12;;;;;;;7.15;4.00;;;;;;;19.33;64.32;99638.91;4805183;29;20064;-80
2022/06/12 12:03:09;;;;;;;6.37;3.80;;;;;;;19.09;64.84;99640.88;4818102;29;20114;-79
2022/06/12 12:05:58;;;;;;;7.88;3.85;;;;;;;20.37;64.09;99632.66;4813807;29;20485;-81
2022/06/12 12:08:33;;;;;;;6.65;3.60;;;;;;;20.47;62.41;99663.97;4797853;29;20200;-81